Rechercher aéroport 
image banner adimage banner adimage banner ad
image banner ad

59CN - James Brothers

Situé à Pleasant Grove, United States

ICAO - 59CN, IATA -

Données fournies par Airmate  

Information générale

Coordonnées: N38°50'6" W121°31'47"
Élévation : 25 feet MSL.
Variation magnétique : 16° East
Voir autres Aéroports à California

Données opérationnelles

Special qualification required
Heure actuelle UTC:
Heure actuelle locale:
Météo à : KSMF - Sacramento Intl ( 16 km )
METAR: KSMF 231353Z 30003KT 10SM CLR 15/09 A2992 RMK AO2 SLP131 T01500089
TAF: KSMF 231120Z 2312/2412 33008KT P6SM SKC FM240400 17006KT P6SM FEW250
Voir NOTAMs / SUP AIP / TFR affectant cet aéroport [VIEW]
Fréquences de communication: [VIEW]

Pistes:

Identifiant RWYQFULongueur (ft)Largeur (ft)SurfaceLDA (ft)
16250075GRASS
34250075GRASS

Coordonnées de l'aéroport

Adresse: Pleasant Grove United States

Vue satellite de 59CN